sensor_id;sensor_type;location;lat;lon;timestamp;P1;durP1;ratioP1;P2;durP2;ratioP2
7917;SDS011;4004;42.624;23.386;2023-07-29T00:01:42;3.30;;;2.40;;
7917;SDS011;4004;42.624;23.386;2023-07-29T00:04:11;4.93;;;2.60;;
7917;SDS011;4004;42.624;23.386;2023-07-29T00:06:38;2.83;;;2.63;;
7917;SDS011;4004;42.624;23.386;2023-07-29T00:09:04;2.97;;;2.77;;
7917;SDS011;4004;42.624;23.386;2023-07-29T00:11:31;2.93;;;2.70;;
7917;SDS011;4004;42.624;23.386;2023-07-29T00:13:58;4.07;;;2.50;;
7917;SDS011;4004;42.624;23.386;2023-07-29T00:16:25;2.53;;;2.33;;
7917;SDS011;4004;42.624;23.386;2023-07-29T00:18:52;2.57;;;2.30;;
7917;SDS011;4004;42.624;23.386;2023-07-29T00:21:20;3.43;;;2.53;;
7917;SDS011;4004;42.624;23.386;2023-07-29T00:23:47;2.53;;;2.23;;
7917;SDS011;4004;42.624;23.386;2023-07-29T00:26:13;3.33;;;2.63;;
7917;SDS011;4004;42.624;23.386;2023-07-29T00:28:40;2.90;;;2.60;;
7917;SDS011;4004;42.624;23.386;2023-07-29T00:31:07;3.20;;;2.80;;
7917;SDS011;4004;42.624;23.386;2023-07-29T00:33:34;3.70;;;3.10;;
7917;SDS011;4004;42.624;23.386;2023-07-29T00:36:00;5.63;;;3.13;;
7917;SDS011;4004;42.624;23.386;2023-07-29T00:38:29;4.07;;;2.40;;
7917;SDS011;4004;42.624;23.386;2023-07-29T00:40:56;4.73;;;2.50;;
7917;SDS011;4004;42.624;23.386;2023-07-29T00:43:23;2.97;;;2.53;;
7917;SDS011;4004;42.624;23.386;2023-07-29T00:45:50;3.20;;;2.90;;
7917;SDS011;4004;42.624;23.386;2023-07-29T00:48:17;2.57;;;2.17;;
7917;SDS011;4004;42.624;23.386;2023-07-29T00:50:44;2.67;;;2.47;;
7917;SDS011;4004;42.624;23.386;2023-07-29T00:53:11;2.90;;;2.47;;
7917;SDS011;4004;42.624;23.386;2023-07-29T00:55:39;3.13;;;2.47;;
7917;SDS011;4004;42.624;23.386;2023-07-29T00:58:07;2.77;;;2.53;;
7917;SDS011;4004;42.624;23.386;2023-07-29T01:00:33;3.10;;;2.87;;
7917;SDS011;4004;42.624;23.386;2023-07-29T01:03:00;4.83;;;2.90;;
7917;SDS011;4004;42.624;23.386;2023-07-29T01:05:28;5.60;;;3.00;;
7917;SDS011;4004;42.624;23.386;2023-07-29T01:08:05;3.83;;;2.93;;
7917;SDS011;4004;42.624;23.386;2023-07-29T01:10:43;3.40;;;3.00;;
7917;SDS011;4004;42.624;23.386;2023-07-29T01:13:19;3.73;;;2.83;;
7917;SDS011;4004;42.624;23.386;2023-07-29T01:15:52;3.10;;;2.90;;
7917;SDS011;4004;42.624;23.386;2023-07-29T01:18:22;3.33;;;3.03;;
7917;SDS011;4004;42.624;23.386;2023-07-29T01:20:51;2.70;;;2.50;;
7917;SDS011;4004;42.624;23.386;2023-07-29T01:23:25;5.17;;;4.67;;
7917;SDS011;4004;42.624;23.386;2023-07-29T01:25:52;3.33;;;3.03;;
7917;SDS011;4004;42.624;23.386;2023-07-29T01:28:18;4.13;;;2.80;;
7917;SDS011;4004;42.624;23.386;2023-07-29T01:30:45;3.67;;;3.37;;
7917;SDS011;4004;42.624;23.386;2023-07-29T01:33:16;5.00;;;2.93;;
7917;SDS011;4004;42.624;23.386;2023-07-29T01:35:46;3.10;;;2.80;;
7917;SDS011;4004;42.624;23.386;2023-07-29T01:38:18;3.53;;;2.90;;
7917;SDS011;4004;42.624;23.386;2023-07-29T01:40:48;4.37;;;2.80;;
7917;SDS011;4004;42.624;23.386;2023-07-29T01:43:16;5.87;;;2.97;;
7917;SDS011;4004;42.624;23.386;2023-07-29T01:45:48;5.37;;;3.27;;
7917;SDS011;4004;42.624;23.386;2023-07-29T01:48:15;2.90;;;2.60;;
7917;SDS011;4004;42.624;23.386;2023-07-29T01:50:42;4.37;;;3.00;;
7917;SDS011;4004;42.624;23.386;2023-07-29T01:53:09;4.10;;;3.50;;
7917;SDS011;4004;42.624;23.386;2023-07-29T01:55:35;4.57;;;3.30;;
7917;SDS011;4004;42.624;23.386;2023-07-29T01:58:03;2.80;;;2.60;;
7917;SDS011;4004;42.624;23.386;2023-07-29T02:00:30;2.80;;;2.60;;
7917;SDS011;4004;42.624;23.386;2023-07-29T02:02:57;2.70;;;2.50;;
7917;SDS011;4004;42.624;23.386;2023-07-29T02:05:24;2.93;;;2.63;;
7917;SDS011;4004;42.624;23.386;2023-07-29T02:07:50;4.10;;;2.87;;
7917;SDS011;4004;42.624;23.386;2023-07-29T02:10:17;3.40;;;3.10;;
7917;SDS011;4004;42.624;23.386;2023-07-29T02:12:44;3.50;;;3.20;;
7917;SDS011;4004;42.624;23.386;2023-07-29T02:15:12;3.00;;;2.80;;
7917;SDS011;4004;42.624;23.386;2023-07-29T02:17:40;3.47;;;3.17;;
7917;SDS011;4004;42.624;23.386;2023-07-29T02:20:08;4.03;;;3.23;;
7917;SDS011;4004;42.624;23.386;2023-07-29T02:22:35;3.50;;;3.20;;
7917;SDS011;4004;42.624;23.386;2023-07-29T02:25:02;3.80;;;3.50;;
7917;SDS011;4004;42.624;23.386;2023-07-29T02:27:30;4.20;;;3.33;;
7917;SDS011;4004;42.624;23.386;2023-07-29T02:29:58;3.73;;;3.23;;
7917;SDS011;4004;42.624;23.386;2023-07-29T02:32:26;3.10;;;2.80;;
7917;SDS011;4004;42.624;23.386;2023-07-29T02:34:53;3.30;;;3.00;;
7917;SDS011;4004;42.624;23.386;2023-07-29T02:37:20;3.40;;;3.10;;
7917;SDS011;4004;42.624;23.386;2023-07-29T02:39:46;3.77;;;3.40;;
7917;SDS011;4004;42.624;23.386;2023-07-29T02:42:13;3.63;;;3.00;;
7917;SDS011;4004;42.624;23.386;2023-07-29T02:44:40;5.67;;;3.43;;
7917;SDS011;4004;42.624;23.386;2023-07-29T02:47:07;5.63;;;3.37;;
7917;SDS011;4004;42.624;23.386;2023-07-29T02:49:35;4.00;;;3.00;;
7917;SDS011;4004;42.624;23.386;2023-07-29T02:52:02;6.30;;;2.70;;
7917;SDS011;4004;42.624;23.386;2023-07-29T02:54:29;3.60;;;3.30;;
7917;SDS011;4004;42.624;23.386;2023-07-29T02:56:55;3.60;;;3.30;;
7917;SDS011;4004;42.624;23.386;2023-07-29T02:59:22;6.27;;;3.43;;
7917;SDS011;4004;42.624;23.386;2023-07-29T03:01:49;4.57;;;3.07;;
7917;SDS011;4004;42.624;23.386;2023-07-29T03:04:16;3.30;;;2.77;;
7917;SDS011;4004;42.624;23.386;2023-07-29T03:06:44;4.47;;;2.80;;
7917;SDS011;4004;42.624;23.386;2023-07-29T03:09:13;6.33;;;2.70;;
7917;SDS011;4004;42.624;23.386;2023-07-29T03:11:40;6.07;;;2.97;;
7917;SDS011;4004;42.624;23.386;2023-07-29T03:14:06;3.80;;;3.00;;
7917;SDS011;4004;42.624;23.386;2023-07-29T03:16:33;3.30;;;3.00;;
7917;SDS011;4004;42.624;23.386;2023-07-29T03:19:00;3.50;;;3.20;;
7917;SDS011;4004;42.624;23.386;2023-07-29T03:21:27;3.30;;;2.90;;
7917;SDS011;4004;42.624;23.386;2023-07-29T03:23:55;3.83;;;2.93;;
7917;SDS011;4004;42.624;23.386;2023-07-29T03:26:22;3.07;;;2.77;;
7917;SDS011;4004;42.624;23.386;2023-07-29T03:28:49;4.37;;;3.13;;
7917;SDS011;4004;42.624;23.386;2023-07-29T03:31:15;5.27;;;2.93;;
7917;SDS011;4004;42.624;23.386;2023-07-29T03:33:42;4.00;;;3.57;;
7917;SDS011;4004;42.624;23.386;2023-07-29T03:36:09;3.50;;;3.20;;
7917;SDS011;4004;42.624;23.386;2023-07-29T03:38:35;3.70;;;3.40;;
7917;SDS011;4004;42.624;23.386;2023-07-29T03:41:06;6.33;;;3.07;;
7917;SDS011;4004;42.624;23.386;2023-07-29T03:43:33;3.23;;;2.93;;
7917;SDS011;4004;42.624;23.386;2023-07-29T03:46:00;4.00;;;3.07;;
7917;SDS011;4004;42.624;23.386;2023-07-29T03:48:27;4.97;;;3.93;;
7917;SDS011;4004;42.624;23.386;2023-07-29T03:50:54;3.50;;;3.20;;
7917;SDS011;4004;42.624;23.386;2023-07-29T03:53:20;3.93;;;3.10;;
7917;SDS011;4004;42.624;23.386;2023-07-29T03:55:47;3.33;;;2.97;;
7917;SDS011;4004;42.624;23.386;2023-07-29T03:58:16;3.30;;;3.00;;
7917;SDS011;4004;42.624;23.386;2023-07-29T04:00:43;5.97;;;3.63;;
7917;SDS011;4004;42.624;23.386;2023-07-29T04:03:09;4.10;;;3.17;;
7917;SDS011;4004;42.624;23.386;2023-07-29T04:05:36;3.73;;;3.37;;
7917;SDS011;4004;42.624;23.386;2023-07-29T04:08:03;4.13;;;3.73;;
7917;SDS011;4004;42.624;23.386;2023-07-29T04:10:30;3.50;;;3.20;;
7917;SDS011;4004;42.624;23.386;2023-07-29T04:12:57;6.83;;;3.00;;
7917;SDS011;4004;42.624;23.386;2023-07-29T04:15:25;3.33;;;2.83;;
7917;SDS011;4004;42.624;23.386;2023-07-29T04:17:52;6.20;;;3.77;;
7917;SDS011;4004;42.624;23.386;2023-07-29T04:20:18;3.73;;;3.03;;
7917;SDS011;4004;42.624;23.386;2023-07-29T04:22:45;6.00;;;2.80;;
7917;SDS011;4004;42.624;23.386;2023-07-29T04:25:12;3.07;;;2.80;;
7917;SDS011;4004;42.624;23.386;2023-07-29T04:27:39;3.27;;;2.97;;
7917;SDS011;4004;42.624;23.386;2023-07-29T04:30:06;4.20;;;3.00;;
7917;SDS011;4004;42.624;23.386;2023-07-29T04:32:35;3.70;;;2.53;;
7917;SDS011;4004;42.624;23.386;2023-07-29T04:35:01;2.97;;;2.70;;
7917;SDS011;4004;42.624;23.386;2023-07-29T04:37:28;3.10;;;2.80;;
7917;SDS011;4004;42.624;23.386;2023-07-29T04:39:55;5.70;;;2.70;;
7917;SDS011;4004;42.624;23.386;2023-07-29T04:42:22;3.50;;;2.57;;
7917;SDS011;4004;42.624;23.386;2023-07-29T04:44:49;5.97;;;2.80;;
7917;SDS011;4004;42.624;23.386;2023-07-29T04:47:15;17.73;;;4.40;;
7917;SDS011;4004;42.624;23.386;2023-07-29T04:49:42;5.20;;;2.73;;
7917;SDS011;4004;42.624;23.386;2023-07-29T04:52:09;8.73;;;2.77;;
7917;SDS011;4004;42.624;23.386;2023-07-29T04:54:36;2.87;;;2.60;;
7917;SDS011;4004;42.624;23.386;2023-07-29T04:57:03;7.80;;;3.53;;
7917;SDS011;4004;42.624;23.386;2023-07-29T04:59:30;9.40;;;3.20;;
7917;SDS011;4004;42.624;23.386;2023-07-29T05:01:57;7.03;;;2.80;;
7917;SDS011;4004;42.624;23.386;2023-07-29T05:04:23;3.73;;;3.20;;
7917;SDS011;4004;42.624;23.386;2023-07-29T05:06:51;2.90;;;2.40;;
7917;SDS011;4004;42.624;23.386;2023-07-29T05:09:19;7.37;;;2.83;;
7917;SDS011;4004;42.624;23.386;2023-07-29T05:11:46;5.97;;;3.47;;
7917;SDS011;4004;42.624;23.386;2023-07-29T05:14:14;6.20;;;3.30;;
7917;SDS011;4004;42.624;23.386;2023-07-29T05:16:42;2.70;;;2.50;;
7917;SDS011;4004;42.624;23.386;2023-07-29T05:19:09;5.30;;;3.07;;
7917;SDS011;4004;42.624;23.386;2023-07-29T05:21:37;3.57;;;3.20;;
7917;SDS011;4004;42.624;23.386;2023-07-29T05:24:05;5.33;;;2.77;;
7917;SDS011;4004;42.624;23.386;2023-07-29T05:26:32;7.67;;;3.23;;
7917;SDS011;4004;42.624;23.386;2023-07-29T05:28:59;3.13;;;2.80;;
7917;SDS011;4004;42.624;23.386;2023-07-29T05:31:26;3.20;;;2.90;;
7917;SDS011;4004;42.624;23.386;2023-07-29T05:33:53;3.00;;;2.63;;
7917;SDS011;4004;42.624;23.386;2023-07-29T05:36:20;6.47;;;3.60;;
7917;SDS011;4004;42.624;23.386;2023-07-29T05:38:46;5.27;;;3.10;;
7917;SDS011;4004;42.624;23.386;2023-07-29T05:41:14;8.93;;;3.77;;
7917;SDS011;4004;42.624;23.386;2023-07-29T05:43:41;4.27;;;2.83;;
7917;SDS011;4004;42.624;23.386;2023-07-29T05:46:08;3.50;;;2.67;;
7917;SDS011;4004;42.624;23.386;2023-07-29T05:48:35;5.13;;;2.67;;
7917;SDS011;4004;42.624;23.386;2023-07-29T05:51:02;5.73;;;3.03;;
7917;SDS011;4004;42.624;23.386;2023-07-29T05:53:30;5.47;;;2.67;;
7917;SDS011;4004;42.624;23.386;2023-07-29T05:55:57;5.90;;;3.05;;
7917;SDS011;4004;42.624;23.386;2023-07-29T05:58:25;7.47;;;3.03;;
7917;SDS011;4004;42.624;23.386;2023-07-29T06:00:52;5.47;;;2.90;;
7917;SDS011;4004;42.624;23.386;2023-07-29T06:03:18;3.70;;;3.17;;
7917;SDS011;4004;42.624;23.386;2023-07-29T06:05:45;4.13;;;2.63;;
7917;SDS011;4004;42.624;23.386;2023-07-29T06:08:12;4.73;;;2.57;;
7917;SDS011;4004;42.624;23.386;2023-07-29T06:10:39;9.93;;;2.93;;
7917;SDS011;4004;42.624;23.386;2023-07-29T06:13:05;3.00;;;2.50;;
7917;SDS011;4004;42.624;23.386;2023-07-29T06:15:33;3.65;;;2.92;;
7917;SDS011;4004;42.624;23.386;2023-07-29T06:18:00;6.43;;;3.00;;
7917;SDS011;4004;42.624;23.386;2023-07-29T06:20:27;11.25;;;3.53;;
7917;SDS011;4004;42.624;23.386;2023-07-29T06:22:54;4.72;;;2.60;;
7917;SDS011;4004;42.624;23.386;2023-07-29T06:25:21;4.10;;;2.80;;
7917;SDS011;4004;42.624;23.386;2023-07-29T06:27:48;10.00;;;3.25;;
7917;SDS011;4004;42.624;23.386;2023-07-29T06:30:14;8.30;;;3.27;;
7917;SDS011;4004;42.624;23.386;2023-07-29T06:32:42;9.87;;;3.00;;
7917;SDS011;4004;42.624;23.386;2023-07-29T06:35:09;11.10;;;3.43;;
7917;SDS011;4004;42.624;23.386;2023-07-29T06:37:36;6.27;;;2.80;;
7917;SDS011;4004;42.624;23.386;2023-07-29T06:40:03;6.03;;;3.27;;
7917;SDS011;4004;42.624;23.386;2023-07-29T06:42:30;4.03;;;2.60;;
7917;SDS011;4004;42.624;23.386;2023-07-29T06:44:57;7.07;;;2.70;;
7917;SDS011;4004;42.624;23.386;2023-07-29T06:47:24;3.73;;;2.83;;
7917;SDS011;4004;42.624;23.386;2023-07-29T06:49:53;5.83;;;2.77;;
7917;SDS011;4004;42.624;23.386;2023-07-29T06:52:20;6.27;;;2.97;;
7917;SDS011;4004;42.624;23.386;2023-07-29T06:54:47;4.10;;;2.73;;
7917;SDS011;4004;42.624;23.386;2023-07-29T06:57:13;11.10;;;2.57;;
7917;SDS011;4004;42.624;23.386;2023-07-29T06:59:40;4.80;;;2.50;;
7917;SDS011;4004;42.624;23.386;2023-07-29T07:02:07;6.83;;;2.60;;
7917;SDS011;4004;42.624;23.386;2023-07-29T07:04:34;4.00;;;2.70;;
7917;SDS011;4004;42.624;23.386;2023-07-29T07:07:02;3.23;;;2.47;;
7917;SDS011;4004;42.624;23.386;2023-07-29T07:09:29;13.07;;;3.83;;
7917;SDS011;4004;42.624;23.386;2023-07-29T07:11:55;5.53;;;3.00;;
7917;SDS011;4004;42.624;23.386;2023-07-29T07:14:22;7.50;;;3.40;;
7917;SDS011;4004;42.624;23.386;2023-07-29T07:16:49;6.90;;;3.10;;
7917;SDS011;4004;42.624;23.386;2023-07-29T07:19:16;7.77;;;2.60;;
7917;SDS011;4004;42.624;23.386;2023-07-29T07:21:42;5.87;;;2.70;;
7917;SDS011;4004;42.624;23.386;2023-07-29T07:24:10;7.93;;;2.87;;
7917;SDS011;4004;42.624;23.386;2023-07-29T07:26:37;8.53;;;3.27;;
7917;SDS011;4004;42.624;23.386;2023-07-29T07:29:04;8.23;;;2.73;;
7917;SDS011;4004;42.624;23.386;2023-07-29T07:31:32;5.30;;;2.90;;
7917;SDS011;4004;42.624;23.386;2023-07-29T07:34:00;7.67;;;2.80;;
7917;SDS011;4004;42.624;23.386;2023-07-29T07:36:28;5.53;;;3.00;;
7917;SDS011;4004;42.624;23.386;2023-07-29T07:38:55;5.07;;;3.07;;
7917;SDS011;4004;42.624;23.386;2023-07-29T07:41:23;6.23;;;2.90;;
7917;SDS011;4004;42.624;23.386;2023-07-29T07:43:50;9.90;;;2.70;;
7917;SDS011;4004;42.624;23.386;2023-07-29T07:46:16;6.63;;;3.10;;
7917;SDS011;4004;42.624;23.386;2023-07-29T07:48:43;5.63;;;3.20;;
7917;SDS011;4004;42.624;23.386;2023-07-29T07:51:10;6.40;;;3.10;;
7917;SDS011;4004;42.624;23.386;2023-07-29T07:53:37;7.03;;;2.87;;
7917;SDS011;4004;42.624;23.386;2023-07-29T07:56:05;5.37;;;2.60;;
7917;SDS011;4004;42.624;23.386;2023-07-29T07:58:33;6.90;;;2.77;;
7917;SDS011;4004;42.624;23.386;2023-07-29T08:01:01;4.60;;;2.77;;
7917;SDS011;4004;42.624;23.386;2023-07-29T08:03:28;9.47;;;3.10;;
7917;SDS011;4004;42.624;23.386;2023-07-29T08:05:55;8.00;;;3.40;;
7917;SDS011;4004;42.624;23.386;2023-07-29T08:08:22;7.30;;;3.30;;
7917;SDS011;4004;42.624;23.386;2023-07-29T08:10:48;7.23;;;3.43;;
7917;SDS011;4004;42.624;23.386;2023-07-29T08:13:15;6.23;;;2.73;;
7917;SDS011;4004;42.624;23.386;2023-07-29T08:15:46;7.80;;;3.17;;
7917;SDS011;4004;42.624;23.386;2023-07-29T08:18:13;9.10;;;3.00;;
7917;SDS011;4004;42.624;23.386;2023-07-29T08:20:40;4.30;;;2.60;;
7917;SDS011;4004;42.624;23.386;2023-07-29T08:23:07;7.90;;;3.13;;
7917;SDS011;4004;42.624;23.386;2023-07-29T08:25:34;12.33;;;3.20;;
7917;SDS011;4004;42.624;23.386;2023-07-29T08:28:01;6.27;;;2.67;;
7917;SDS011;4004;42.624;23.386;2023-07-29T08:30:28;5.47;;;2.97;;
7917;SDS011;4004;42.624;23.386;2023-07-29T08:32:56;5.27;;;3.20;;
7917;SDS011;4004;42.624;23.386;2023-07-29T08:35:23;8.30;;;3.20;;
7917;SDS011;4004;42.624;23.386;2023-07-29T08:37:49;8.10;;;2.90;;
7917;SDS011;4004;42.624;23.386;2023-07-29T08:40:16;3.80;;;2.87;;
7917;SDS011;4004;42.624;23.386;2023-07-29T08:42:43;5.07;;;2.50;;
7917;SDS011;4004;42.624;23.386;2023-07-29T08:45:14;3.33;;;2.90;;
7917;SDS011;4004;42.624;23.386;2023-07-29T08:47:43;5.47;;;2.70;;
7917;SDS011;4004;42.624;23.386;2023-07-29T08:50:11;6.20;;;3.00;;
7917;SDS011;4004;42.624;23.386;2023-07-29T08:52:39;3.90;;;2.73;;
7917;SDS011;4004;42.624;23.386;2023-07-29T08:55:07;6.00;;;2.80;;
7917;SDS011;4004;42.624;23.386;2023-07-29T08:57:35;3.27;;;2.50;;
7917;SDS011;4004;42.624;23.386;2023-07-29T09:00:02;5.30;;;2.43;;
7917;SDS011;4004;42.624;23.386;2023-07-29T09:02:29;3.60;;;2.20;;
7917;SDS011;4004;42.624;23.386;2023-07-29T09:04:55;4.23;;;2.40;;
7917;SDS011;4004;42.624;23.386;2023-07-29T09:07:24;2.77;;;2.20;;
7917;SDS011;4004;42.624;23.386;2023-07-29T09:09:52;2.67;;;2.20;;
7917;SDS011;4004;42.624;23.386;2023-07-29T09:12:18;2.20;;;2.00;;
7917;SDS011;4004;42.624;23.386;2023-07-29T09:14:46;8.20;;;3.03;;
7917;SDS011;4004;42.624;23.386;2023-07-29T09:17:12;5.23;;;2.47;;
7917;SDS011;4004;42.624;23.386;2023-07-29T09:19:40;5.97;;;2.13;;
7917;SDS011;4004;42.624;23.386;2023-07-29T09:22:11;4.53;;;2.30;;
7917;SDS011;4004;42.624;23.386;2023-07-29T09:24:45;3.37;;;2.30;;
7917;SDS011;4004;42.624;23.386;2023-07-29T09:27:17;6.60;;;2.60;;
7917;SDS011;4004;42.624;23.386;2023-07-29T09:29:49;2.67;;;1.97;;
7917;SDS011;4004;42.624;23.386;2023-07-29T09:32:19;7.10;;;2.10;;
7917;SDS011;4004;42.624;23.386;2023-07-29T09:34:46;8.77;;;2.17;;
7917;SDS011;4004;42.624;23.386;2023-07-29T09:37:17;4.20;;;1.90;;
7917;SDS011;4004;42.624;23.386;2023-07-29T09:39:46;4.70;;;1.70;;
7917;SDS011;4004;42.624;23.386;2023-07-29T09:42:16;2.22;;;1.92;;
7917;SDS011;4004;42.624;23.386;2023-07-29T09:44:43;2.30;;;1.83;;
7917;SDS011;4004;42.624;23.386;2023-07-29T09:47:18;6.00;;;2.00;;
7917;SDS011;4004;42.624;23.386;2023-07-29T09:49:46;4.93;;;2.00;;
7917;SDS011;4004;42.624;23.386;2023-07-29T09:52:14;4.03;;;1.53;;
7917;SDS011;4004;42.624;23.386;2023-07-29T09:54:41;3.53;;;1.70;;
7917;SDS011;4004;42.624;23.386;2023-07-29T09:57:10;1.60;;;1.50;;
7917;SDS011;4004;42.624;23.386;2023-07-29T09:59:37;7.50;;;1.90;;
7917;SDS011;4004;42.624;23.386;2023-07-29T10:02:04;1.57;;;1.47;;
7917;SDS011;4004;42.624;23.386;2023-07-29T10:04:34;3.40;;;1.90;;
7917;SDS011;4004;42.624;23.386;2023-07-29T10:07:02;4.70;;;1.67;;
7917;SDS011;4004;42.624;23.386;2023-07-29T10:09:29;2.83;;;1.90;;
7917;SDS011;4004;42.624;23.386;2023-07-29T10:11:57;2.80;;;1.60;;
7917;SDS011;4004;42.624;23.386;2023-07-29T10:14:26;4.37;;;1.70;;
7917;SDS011;4004;42.624;23.386;2023-07-29T10:16:54;1.47;;;1.37;;
7917;SDS011;4004;42.624;23.386;2023-07-29T10:19:22;2.63;;;1.23;;
7917;SDS011;4004;42.624;23.386;2023-07-29T10:21:50;1.77;;;1.20;;
7917;SDS011;4004;42.624;23.386;2023-07-29T10:24:19;3.90;;;1.43;;
7917;SDS011;4004;42.624;23.386;2023-07-29T10:26:53;4.20;;;1.60;;
7917;SDS011;4004;42.624;23.386;2023-07-29T10:29:24;3.67;;;1.43;;
7917;SDS011;4004;42.624;23.386;2023-07-29T10:31:56;4.13;;;1.37;;
7917;SDS011;4004;42.624;23.386;2023-07-29T10:34:24;3.60;;;1.20;;
7917;SDS011;4004;42.624;23.386;2023-07-29T10:36:51;2.00;;;1.40;;
7917;SDS011;4004;42.624;23.386;2023-07-29T10:39:19;1.63;;;1.17;;
7917;SDS011;4004;42.624;23.386;2023-07-29T10:41:56;3.17;;;1.30;;
7917;SDS011;4004;42.624;23.386;2023-07-29T10:44:45;1.30;;;1.20;;
7917;SDS011;4004;42.624;23.386;2023-07-29T10:47:16;2.40;;;1.60;;
7917;SDS011;4004;42.624;23.386;2023-07-29T10:49:43;2.33;;;1.30;;
7917;SDS011;4004;42.624;23.386;2023-07-29T10:52:12;1.30;;;1.20;;
7917;SDS011;4004;42.624;23.386;2023-07-29T10:54:43;2.43;;;1.20;;
7917;SDS011;4004;42.624;23.386;2023-07-29T10:57:13;1.50;;;1.07;;
7917;SDS011;4004;42.624;23.386;2023-07-29T10:59:41;2.53;;;1.60;;
7917;SDS011;4004;42.624;23.386;2023-07-29T11:02:28;4.90;;;2.17;;
7917;SDS011;4004;42.624;23.386;2023-07-29T11:04:55;6.07;;;1.83;;
7917;SDS011;4004;42.624;23.386;2023-07-29T11:07:24;3.97;;;1.80;;
7917;SDS011;4004;42.624;23.386;2023-07-29T11:09:58;3.40;;;1.37;;
7917;SDS011;4004;42.624;23.386;2023-07-29T11:12:39;2.63;;;1.90;;
7917;SDS011;4004;42.624;23.386;2023-07-29T11:15:18;1.93;;;1.20;;
7917;SDS011;4004;42.624;23.386;2023-07-29T11:17:48;2.57;;;1.50;;
7917;SDS011;4004;42.624;23.386;2023-07-29T11:20:16;2.03;;;1.40;;
7917;SDS011;4004;42.624;23.386;2023-07-29T11:22:44;3.70;;;3.17;;
7917;SDS011;4004;42.624;23.386;2023-07-29T11:25:11;2.70;;;1.40;;
7917;SDS011;4004;42.624;23.386;2023-07-29T11:27:39;4.70;;;1.37;;
7917;SDS011;4004;42.624;23.386;2023-07-29T11:30:07;1.53;;;1.10;;
7917;SDS011;4004;42.624;23.386;2023-07-29T11:32:35;2.43;;;1.10;;
7917;SDS011;4004;42.624;23.386;2023-07-29T11:35:04;5.13;;;1.10;;
7917;SDS011;4004;42.624;23.386;2023-07-29T11:37:33;3.57;;;1.33;;
7917;SDS011;4004;42.624;23.386;2023-07-29T11:40:00;1.07;;;0.97;;
7917;SDS011;4004;42.624;23.386;2023-07-29T11:42:27;3.33;;;1.30;;
7917;SDS011;4004;42.624;23.386;2023-07-29T11:44:56;3.03;;;1.20;;
7917;SDS011;4004;42.624;23.386;2023-07-29T11:47:24;1.87;;;1.33;;
7917;SDS011;4004;42.624;23.386;2023-07-29T11:49:51;5.10;;;2.37;;
7917;SDS011;4004;42.624;23.386;2023-07-29T11:52:19;4.70;;;1.73;;
7917;SDS011;4004;42.624;23.386;2023-07-29T11:54:47;4.53;;;1.70;;
7917;SDS011;4004;42.624;23.386;2023-07-29T11:57:15;2.00;;;1.50;;
7917;SDS011;4004;42.624;23.386;2023-07-29T11:59:43;1.80;;;1.57;;
7917;SDS011;4004;42.624;23.386;2023-07-29T12:02:11;3.40;;;1.70;;
7917;SDS011;4004;42.624;23.386;2023-07-29T12:04:39;2.13;;;1.60;;
7917;SDS011;4004;42.624;23.386;2023-07-29T12:07:07;4.87;;;1.70;;
7917;SDS011;4004;42.624;23.386;2023-07-29T12:09:36;5.83;;;1.40;;
7917;SDS011;4004;42.624;23.386;2023-07-29T12:12:03;2.77;;;1.40;;
7917;SDS011;4004;42.624;23.386;2023-07-29T12:14:32;2.53;;;1.67;;
7917;SDS011;4004;42.624;23.386;2023-07-29T12:16:59;5.47;;;1.87;;
7917;SDS011;4004;42.624;23.386;2023-07-29T12:19:31;2.67;;;1.40;;
7917;SDS011;4004;42.624;23.386;2023-07-29T12:21:59;1.70;;;1.40;;
7917;SDS011;4004;42.624;23.386;2023-07-29T12:24:25;1.90;;;1.40;;
7917;SDS011;4004;42.624;23.386;2023-07-29T12:26:54;1.30;;;1.07;;
7917;SDS011;4004;42.624;23.386;2023-07-29T12:29:21;1.33;;;1.07;;
7917;SDS011;4004;42.624;23.386;2023-07-29T12:31:48;1.33;;;1.23;;
7917;SDS011;4004;42.624;23.386;2023-07-29T12:34:24;4.00;;;1.20;;
7917;SDS011;4004;42.624;23.386;2023-07-29T12:36:52;3.50;;;1.33;;
7917;SDS011;4004;42.624;23.386;2023-07-29T12:39:20;2.83;;;1.23;;
7917;SDS011;4004;42.624;23.386;2023-07-29T12:41:48;2.50;;;1.50;;
7917;SDS011;4004;42.624;23.386;2023-07-29T12:44:17;3.50;;;1.50;;
7917;SDS011;4004;42.624;23.386;2023-07-29T12:46:44;1.77;;;1.10;;
7917;SDS011;4004;42.624;23.386;2023-07-29T12:49:12;3.93;;;1.20;;
7917;SDS011;4004;42.624;23.386;2023-07-29T12:51:38;2.87;;;1.17;;
7917;SDS011;4004;42.624;23.386;2023-07-29T12:54:05;1.33;;;1.23;;
7917;SDS011;4004;42.624;23.386;2023-07-29T12:56:32;3.10;;;1.50;;
7917;SDS011;4004;42.624;23.386;2023-07-29T12:58:59;1.63;;;1.27;;
7917;SDS011;4004;42.624;23.386;2023-07-29T13:01:28;4.63;;;1.63;;
7917;SDS011;4004;42.624;23.386;2023-07-29T13:03:55;2.13;;;1.40;;
7917;SDS011;4004;42.624;23.386;2023-07-29T13:06:22;2.20;;;1.60;;
7917;SDS011;4004;42.624;23.386;2023-07-29T13:08:49;2.27;;;1.73;;
7917;SDS011;4004;42.624;23.386;2023-07-29T13:11:16;2.27;;;1.30;;
7917;SDS011;4004;42.624;23.386;2023-07-29T13:13:43;2.10;;;1.30;;
7917;SDS011;4004;42.624;23.386;2023-07-29T13:16:10;1.60;;;1.37;;
7917;SDS011;4004;42.624;23.386;2023-07-29T13:18:39;2.40;;;1.40;;
7917;SDS011;4004;42.624;23.386;2023-07-29T13:21:05;4.47;;;1.50;;
7917;SDS011;4004;42.624;23.386;2023-07-29T13:23:32;2.13;;;1.83;;
7917;SDS011;4004;42.624;23.386;2023-07-29T13:25:59;5.40;;;2.10;;
7917;SDS011;4004;42.624;23.386;2023-07-29T13:28:26;5.17;;;2.73;;
7917;SDS011;4004;42.624;23.386;2023-07-29T13:30:53;4.17;;;2.17;;
7917;SDS011;4004;42.624;23.386;2023-07-29T13:33:19;4.13;;;1.83;;
7917;SDS011;4004;42.624;23.386;2023-07-29T13:35:48;3.00;;;1.60;;
7917;SDS011;4004;42.624;23.386;2023-07-29T13:38:15;4.00;;;1.80;;
7917;SDS011;4004;42.624;23.386;2023-07-29T13:40:42;4.37;;;1.90;;
7917;SDS011;4004;42.624;23.386;2023-07-29T13:43:09;3.63;;;1.70;;
7917;SDS011;4004;42.624;23.386;2023-07-29T13:45:35;3.40;;;1.80;;
7917;SDS011;4004;42.624;23.386;2023-07-29T13:48:02;3.30;;;1.57;;
7917;SDS011;4004;42.624;23.386;2023-07-29T13:50:29;2.97;;;1.47;;
7917;SDS011;4004;42.624;23.386;2023-07-29T13:52:58;4.20;;;1.40;;
7917;SDS011;4004;42.624;23.386;2023-07-29T13:55:24;4.70;;;1.60;;
7917;SDS011;4004;42.624;23.386;2023-07-29T13:57:52;2.20;;;1.60;;
7917;SDS011;4004;42.624;23.386;2023-07-29T14:00:19;2.63;;;2.03;;
7917;SDS011;4004;42.624;23.386;2023-07-29T14:02:45;1.90;;;1.70;;
7917;SDS011;4004;42.624;23.386;2023-07-29T14:05:12;4.83;;;4.23;;
7917;SDS011;4004;42.624;23.386;2023-07-29T14:07:39;4.13;;;2.27;;
7917;SDS011;4004;42.624;23.386;2023-07-29T14:10:08;2.57;;;1.77;;
7917;SDS011;4004;42.624;23.386;2023-07-29T14:12:34;3.30;;;1.90;;
7917;SDS011;4004;42.624;23.386;2023-07-29T14:15:03;3.97;;;1.80;;
7917;SDS011;4004;42.624;23.386;2023-07-29T14:17:30;3.00;;;2.00;;
7917;SDS011;4004;42.624;23.386;2023-07-29T14:19:57;2.20;;;1.80;;
7917;SDS011;4004;42.624;23.386;2023-07-29T14:22:24;10.67;;;2.77;;
7917;SDS011;4004;42.624;23.386;2023-07-29T14:24:51;1.80;;;1.50;;
7917;SDS011;4004;42.624;23.386;2023-07-29T14:27:19;2.63;;;1.80;;
7917;SDS011;4004;42.624;23.386;2023-07-29T14:29:45;5.57;;;2.37;;
7917;SDS011;4004;42.624;23.386;2023-07-29T14:32:12;9.60;;;2.07;;
7917;SDS011;4004;42.624;23.386;2023-07-29T14:34:39;3.13;;;2.03;;
7917;SDS011;4004;42.624;23.386;2023-07-29T14:37:06;4.53;;;2.53;;
7917;SDS011;4004;42.624;23.386;2023-07-29T14:39:32;3.87;;;1.90;;
7917;SDS011;4004;42.624;23.386;2023-07-29T14:41:59;5.90;;;3.10;;
7917;SDS011;4004;42.624;23.386;2023-07-29T14:44:27;2.77;;;1.80;;
7917;SDS011;4004;42.624;23.386;2023-07-29T14:46:54;2.70;;;1.60;;
7917;SDS011;4004;42.624;23.386;2023-07-29T14:49:21;1.93;;;1.73;;
7917;SDS011;4004;42.624;23.386;2023-07-29T14:51:48;1.83;;;1.47;;
7917;SDS011;4004;42.624;23.386;2023-07-29T14:54:15;2.07;;;1.87;;
7917;SDS011;4004;42.624;23.386;2023-07-29T14:56:41;2.00;;;1.80;;
7917;SDS011;4004;42.624;23.386;2023-07-29T14:59:08;1.97;;;1.60;;
7917;SDS011;4004;42.624;23.386;2023-07-29T15:01:36;2.60;;;1.40;;
7917;SDS011;4004;42.624;23.386;2023-07-29T15:04:03;5.23;;;1.90;;